Terminal Aerodrome Forecast
Issued by NWS

Home | Current Version | Previous Version | Text Only | Print | Product List | Glossary On
Versions: 1 2 3 4 5 6 7 8 9 10 11 12 13 14 15 16 17 18 19
000
FTUS41 KBGM 291700
TAFELM
TAF
KELM 291733Z 2918/3018 15009KT P6SM OVC080 WS020/18045KT
     FM292300 16012KT 2SM -SN OVC025 WS020/18045KT
      TEMPO 3002/3006 1SM -SN OVC010
     FM300600 16012KT 2SM -SN OVC025
     FM301000 29010G20KT 4SM -SHSN OVC025=

USA.gov is the U.S. government's official web portal to all federal, state and local government web resources and services.